Observation data for Knox City on 07/17/2019      Previous  Date  Next       Current Mesonet Observations  Soil Data  Daily Summary Page  Observations in Plain Language
KKN1 170500Z 15011KT 30/20 A2994 RMK A01 T03010199  RH  058%=      5-min Rain = 0
KKN1 170505Z 15010KT 30/20 A2994 RMK A01 T03000199  RH  058%=      5-min Rain = 0
KKN1 170510Z 15011KT 30/20 A2994 RMK A01 T03000199  RH  058%=      5-min Rain = 0
KKN1 170515Z 15011G16KT 30/20 A2994 RMK A01 T02990198  RH  058%=      5-min Rain = 0
KKN1 170520Z 15011KT 30/20 A2994 RMK A01 T02990198  RH  058%=      5-min Rain = 0
KKN1 170525Z 15012KT 30/20 A2994 RMK A01 T02980198  RH  058%=      5-min Rain = 0
KKN1 170530Z 15011KT 30/20 A2994 RMK A01 T02980197  RH  058%=      5-min Rain = 0
KKN1 170535Z 16010KT 30/20 A2994 RMK A01 T02970197  RH  058%=      5-min Rain = 0
KKN1 170540Z 15010KT 30/20 A2994 RMK A01 T02960196  RH  058%=      5-min Rain = 0
KKN1 170545Z 15010KT 30/20 A2994 RMK A01 T02950196  RH  059%=      5-min Rain = 0
KKN1 170550Z 15011KT 29/20 A2994 RMK A01 T02940196  RH  059%=      5-min Rain = 0
KKN1 170555Z 16010KT 29/20 A2994 RMK A01 T02930196  RH  059%=      5-min Rain = 0
KKN1 170600Z 16010KT 29/20 A2994 RMK A01 T02920195  RH  059%=      5-min Rain = 0
KKN1 170605Z 16010KT 29/20 A2994 RMK A01 T02920195  RH  059%=      5-min Rain = 0
KKN1 170610Z 16010KT 29/19 A2994 RMK A01 T02920194  RH  059%=      5-min Rain = 0
KKN1 170615Z 16011KT 29/19 A2994 RMK A01 T02920193  RH  059%=      5-min Rain = 0
KKN1 170620Z 16010KT 29/19 A2994 RMK A01 T02920192  RH  058%=      5-min Rain = 0
KKN1 170625Z 16010KT 29/19 A2994 RMK A01 T02910191  RH  058%=      5-min Rain = 0
KKN1 170630Z 17010KT 29/19 A2994 RMK A01 T02900191  RH  058%=      5-min Rain = 0
KKN1 170635Z 17010KT 29/19 A2994 RMK A01 T02890190  RH  058%=      5-min Rain = 0
KKN1 170640Z 16010KT 29/19 A2994 RMK A01 T02880190  RH  058%=      5-min Rain = 0
KKN1 170645Z 16010KT 29/19 A2994 RMK A01 T02870190  RH  059%=      5-min Rain = 0
KKN1 170650Z 16010KT 29/19 A2994 RMK A01 T02870189  RH  059%=      5-min Rain = 0
KKN1 170655Z 17010KT 29/19 A2994 RMK A01 T02860189  RH  059%=      5-min Rain = 0
KKN1 170700Z 17009KT 29/19 A2994 RMK A01 T02850189  RH  059%=      5-min Rain = 0
KKN1 170705Z 17010KT 28/19 A2994 RMK A01 T02840188  RH  059%=      5-min Rain = 0
KKN1 170710Z 17009KT 28/19 A2994 RMK A01 T02830188  RH  060%=      5-min Rain = 0
KKN1 170715Z 17009KT 28/19 A2994 RMK A01 T02820188  RH  060%=      5-min Rain = 0
KKN1 170720Z 17009KT 28/19 A2994 RMK A01 T02820188  RH  060%=      5-min Rain = 0
KKN1 170725Z 17009KT 28/19 A2994 RMK A01 T02800188  RH  061%=      5-min Rain = 0
KKN1 170730Z 17009KT 28/19 A2994 RMK A01 T02790188  RH  061%=      5-min Rain = 0
KKN1 170735Z 17009KT 28/19 A2994 RMK A01 T02790187  RH  061%=      5-min Rain = 0
KKN1 170740Z 17008KT 28/19 A2994 RMK A01 T02780188  RH  061%=      5-min Rain = 0
KKN1 170745Z 17008KT 28/19 A2994 RMK A01 T02760187  RH  062%=      5-min Rain = 0
KKN1 170750Z 17008KT 28/19 A2994 RMK A01 T02760187  RH  062%=      5-min Rain = 0
KKN1 170755Z 17008KT 28/19 A2994 RMK A01 T02750187  RH  062%=      5-min Rain = 0
KKN1 170800Z 17007KT 27/19 A2994 RMK A01 T02740186  RH  062%=      5-min Rain = 0
KKN1 170805Z 17008KT 27/19 A2994 RMK A01 T02730186  RH  062%=      5-min Rain = 0
KKN1 170810Z 17008KT 27/19 A2994 RMK A01 T02740186  RH  062%=      5-min Rain = 0
KKN1 170815Z 17008KT 27/19 A2994 RMK A01 T02740186  RH  062%=      5-min Rain = 0
KKN1 170820Z 17009KT 27/19 A2994 RMK A01 T02740186  RH  062%=      5-min Rain = 0
KKN1 170825Z 17008KT 27/19 A2994 RMK A01 T02730186  RH  062%=      5-min Rain = 0
KKN1 170830Z 17008KT 27/19 A2994 RMK A01 T02730186  RH  062%=      5-min Rain = 0
KKN1 170835Z 18008KT 27/19 A2994 RMK A01 T02730186  RH  062%=      5-min Rain = 0
KKN1 170840Z 17009KT 27/19 A2994 RMK A01 T02730186  RH  062%=      5-min Rain = 0
KKN1 170845Z 17009KT 27/19 A2994 RMK A01 T02740186  RH  062%=      5-min Rain = 0
KKN1 170850Z 17009KT 27/19 A2994 RMK A01 T02740186  RH  062%=      5-min Rain = 0
KKN1 170855Z 17009KT 27/19 A2994 RMK A01 T02740186  RH  062%=      5-min Rain = 0
KKN1 170900Z 17010KT 28/19 A2994 RMK A01 T02750186  RH  062%=      5-min Rain = 0
KKN1 170905Z 17010KT 28/19 A2994 RMK A01 T02750186  RH  062%=      5-min Rain = 0
KKN1 170910Z 18010KT 28/19 A2994 RMK A01 T02760187  RH  062%=      5-min Rain = 0
KKN1 170915Z 18010KT 28/19 A2994 RMK A01 T02750187  RH  062%=      5-min Rain = 0
KKN1 170920Z 17010KT 28/19 A2994 RMK A01 T02750187  RH  062%=      5-min Rain = 0
KKN1 170925Z 18010KT 27/19 A2994 RMK A01 T02740188  RH  063%=      5-min Rain = 0
KKN1 170930Z 18009KT 27/19 A2994 RMK A01 T02740188  RH  063%=      5-min Rain = 0
KKN1 170935Z 18009KT 27/19 A2994 RMK A01 T02730189  RH  064%=      5-min Rain = 0
KKN1 170940Z 17010KT 27/19 A2994 RMK A01 T02720190  RH  064%=      5-min Rain = 0
KKN1 170945Z 18011KT 27/19 A2994 RMK A01 T02730190  RH  064%=      5-min Rain = 0
KKN1 170950Z 18010KT 27/19 A2994 RMK A01 T02730191  RH  064%=      5-min Rain = 0
KKN1 170955Z 18011KT 27/19 A2994 RMK A01 T02740192  RH  065%=      5-min Rain = 0
KKN1 171000Z 18010KT 27/19 A2994 RMK A01 T02730193  RH  065%=      5-min Rain = 0
KKN1 171005Z 18010KT 27/19 A2994 RMK A01 T02730194  RH  065%=      5-min Rain = 0
KKN1 171010Z 18010KT 27/20 A2994 RMK A01 T02730195  RH  066%=      5-min Rain = 0
KKN1 171015Z 18010KT 27/20 A2994 RMK A01 T02730195  RH  066%=      5-min Rain = 0
KKN1 171020Z 18010KT 27/20 A2995 RMK A01 T02730196  RH  066%=      5-min Rain = 0
KKN1 171025Z 18010KT 27/20 A2995 RMK A01 T02730196  RH  067%=      5-min Rain = 0
KKN1 171030Z 18009KT 27/20 A2995 RMK A01 T02720197  RH  067%=      5-min Rain = 0
KKN1 171035Z 19010KT 27/20 A2995 RMK A01 T02710197  RH  068%=      5-min Rain = 0
KKN1 171040Z 18010KT 27/20 A2995 RMK A01 T02710197  RH  068%=      5-min Rain = 0
KKN1 171045Z 18010KT 27/20 A2995 RMK A01 T02700198  RH  068%=      5-min Rain = 0
KKN1 171050Z 18009KT 27/20 A2995 RMK A01 T02690198  RH  069%=      5-min Rain = 0
KKN1 171055Z 18010KT 27/20 A2995 RMK A01 T02690198  RH  069%=      5-min Rain = 0
KKN1 171100Z 18009KT 27/20 A2996 RMK A01 T02680199  RH  070%=      5-min Rain = 0
KKN1 171105Z 18009KT 27/20 A2996 RMK A01 T02670199  RH  070%=      5-min Rain = 0
KKN1 171110Z 18009KT 27/20 A2996 RMK A01 T02660199  RH  071%=      5-min Rain = 0
KKN1 171115Z 18009KT 27/20 A2996 RMK A01 T02650200  RH  071%=      5-min Rain = 0
KKN1 171120Z 18009KT 27/20 A2996 RMK A01 T02650200  RH  072%=      5-min Rain = 0
KKN1 171125Z 18010KT 27/20 A2996 RMK A01 T02650200  RH  072%=      5-min Rain = 0
KKN1 171130Z 18010KT 27/20 A2996 RMK A01 T02650201  RH  072%=      5-min Rain = 0
KKN1 171135Z 18009KT 26/20 A2997 RMK A01 T02640201  RH  073%=      5-min Rain = 0
KKN1 171140Z 18009KT 26/20 A2997 RMK A01 T02630202  RH  073%=      5-min Rain = 0
KKN1 171145Z 18009KT 26/20 A2997 RMK A01 T02630202  RH  073%=      5-min Rain = 0
KKN1 171150Z 18009KT 26/20 A2997 RMK A01 T02630202  RH  073%=      5-min Rain = 0
KKN1 171155Z 18009KT 26/20 A2997 RMK A01 T02630202  RH  074%=      5-min Rain = 0
KKN1 171200Z 18008KT 26/20 A2997 RMK A01 T02630203  RH  074%=      5-min Rain = 0
KKN1 171205Z 18009KT 26/20 A2997 RMK A01 T02630203  RH  074%=      5-min Rain = 0
KKN1 171210Z 18008KT 26/20 A2997 RMK A01 T02640204  RH  074%=      5-min Rain = 0
KKN1 171215Z 18009KT 26/20 A2997 RMK A01 T02640204  RH  074%=      5-min Rain = 0
KKN1 171220Z 18009KT 27/21 A2997 RMK A01 T02650205  RH  074%=      5-min Rain = 0
KKN1 171225Z 18009KT 27/21 A2998 RMK A01 T02660205  RH  074%=      5-min Rain = 0
KKN1 171230Z 18009KT 27/21 A2998 RMK A01 T02680206  RH  073%=      5-min Rain = 0
KKN1 171235Z 18009KT 27/21 A2998 RMK A01 T02690207  RH  073%=      5-min Rain = 0
KKN1 171240Z 18009KT 27/21 A2998 RMK A01 T02700207  RH  073%=      5-min Rain = 0
KKN1 171245Z 18010KT 27/21 A2998 RMK A01 T02720208  RH  072%=      5-min Rain = 0
KKN1 171250Z 18010KT 27/21 A2998 RMK A01 T02740208  RH  072%=      5-min Rain = 0
KKN1 171255Z 18011KT 28/21 A2998 RMK A01 T02760209  RH  071%=      5-min Rain = 0
KKN1 171300Z 19010KT 28/21 A2998 RMK A01 T02780209  RH  070%=      5-min Rain = 0
KKN1 171305Z 18011KT 28/21 A2998 RMK A01 T02810210  RH  070%=      5-min Rain = 0
KKN1 171310Z 18012KT 28/21 A2998 RMK A01 T02820210  RH  069%=      5-min Rain = 0
KKN1 171315Z 19014KT 28/21 A2998 RMK A01 T02840210  RH  068%=      5-min Rain = 0
KKN1 171320Z 19013G18KT 29/21 A2998 RMK A01 T02860211  RH  068%=      5-min Rain = 0
KKN1 171325Z 19015KT 29/21 A2998 RMK A01 T02860210  RH  068%=      5-min Rain = 0
KKN1 171330Z 19013KT 29/21 A2998 RMK A01 T02870211  RH  068%=      5-min Rain = 0
KKN1 171335Z 19012KT 29/21 A2999 RMK A01 T02900212  RH  066%=      5-min Rain = 0
KKN1 171340Z 20012G19KT 29/21 A2999 RMK A01 T02920212  RH  066%=      5-min Rain = 0
KKN1 171345Z 19014KT 29/21 A2999 RMK A01 T02920211  RH  066%=      5-min Rain = 0
KKN1 171350Z 19013KT 29/21 A2999 RMK A01 T02930211  RH  065%=      5-min Rain = 0
KKN1 171355Z 20015KT 29/21 A2999 RMK A01 T02940211  RH  065%=      5-min Rain = 0
KKN1 171400Z 20014KT 30/21 A2999 RMK A01 T02960211  RH  064%=      5-min Rain = 0
KKN1 171405Z 21015KT 30/21 A30 RMK A01 T02980211  RH  063%=      5-min Rain = 0
KKN1 171410Z 20015G20KT 30/21 A30 RMK A01 T03010212  RH  063%=      5-min Rain = 0
KKN1 171415Z 21015G20KT 30/21 A2999 RMK A01 T03000210  RH  062%=      5-min Rain = 0
KKN1 171420Z 21014KT 30/21 A30 RMK A01 T03010211  RH  062%=      5-min Rain = 0
KKN1 171425Z 20015KT 30/21 A30 RMK A01 T03030210  RH  061%=      5-min Rain = 0
KKN1 171430Z 21016G21KT 31/21 A30 RMK A01 T03050209  RH  060%=      5-min Rain = 0
KKN1 171435Z 21014KT 31/21 A30 RMK A01 T03070209  RH  060%=      5-min Rain = 0
KKN1 171440Z 21014G21KT 31/21 A30 RMK A01 T03090210  RH  059%=      5-min Rain = 0
KKN1 171445Z 20014KT 31/21 A30 RMK A01 T03100211  RH  059%=      5-min Rain = 0
KKN1 171450Z 20015G20KT 31/21 A30 RMK A01 T03110209  RH  058%=      5-min Rain = 0
KKN1 171455Z 21014G19KT 32/21 A30 RMK A01 T03150209  RH  057%=      5-min Rain = 0
KKN1 171500Z 20014KT 32/21 A30 RMK A01 T03150210  RH  057%=      5-min Rain = 0
KKN1 171505Z 20014KT 32/21 A2999 RMK A01 T03170210  RH  056%=      5-min Rain = 0
KKN1 171510Z 19014KT 32/21 A2999 RMK A01 T03180209  RH  056%=      5-min Rain = 0
KKN1 171515Z 20013KT 32/21 A2999 RMK A01 T03190208  RH  055%=      5-min Rain = 0
KKN1 171520Z 20013KT 32/21 A2999 RMK A01 T03210208  RH  055%=      5-min Rain = 0
KKN1 171525Z 19012G17KT 32/21 A30 RMK A01 T03210210  RH  055%=      5-min Rain = 0
KKN1 171530Z 19014KT 32/21 A30 RMK A01 T03240208  RH  054%=      5-min Rain = 0
KKN1 171535Z 19014KT 32/21 A30 RMK A01 T03230206  RH  053%=      5-min Rain = 0
KKN1 171540Z 20015KT 33/21 A30 RMK A01 T03250205  RH  052%=      5-min Rain = 0
KKN1 171545Z 21013KT 33/21 A30 RMK A01 T03280205  RH  051%=      5-min Rain = 0
KKN1 171550Z 20015KT 33/20 A30 RMK A01 T03290204  RH  051%=      5-min Rain = 0
KKN1 171555Z 19014KT 33/21 A30 RMK A01 T03300206  RH  051%=      5-min Rain = 0
KKN1 171600Z 19014KT 33/20 A30 RMK A01 T03310204  RH  050%=      5-min Rain = 0
KKN1 171605Z 18014G19KT 33/20 A30 RMK A01 T03320204  RH  050%=      5-min Rain = 0
KKN1 171610Z 21015KT 34/20 A30 RMK A01 T03350204  RH  049%=      5-min Rain = 0
KKN1 171615Z 21014G19KT 33/21 A30 RMK A01 T03340205  RH  050%=      5-min Rain = 0
KKN1 171620Z 20013KT 34/21 A30 RMK A01 T03390206  RH  049%=      5-min Rain = 0
KKN1 171625Z 19014KT 34/20 A30 RMK A01 T03370203  RH  048%=      5-min Rain = 0
KKN1 171630Z 19014G19KT 34/20 A30 RMK A01 T03390203  RH  048%=      5-min Rain = 0
KKN1 171635Z 18016KT 34/20 A30 RMK A01 T03410201  RH  047%=      5-min Rain = 0
KKN1 171640Z 20012G18KT 34/20 A30 RMK A01 T03420203  RH  047%=      5-min Rain = 0
KKN1 171645Z 19015KT 34/20 A2999 RMK A01 T03440201  RH  046%=      5-min Rain = 0
KKN1 171650Z 19014G20KT 34/20 A2999 RMK A01 T03440199  RH  045%=      5-min Rain = 0
KKN1 171655Z 19012G18KT 35/20 A2999 RMK A01 T03460199  RH  045%=      5-min Rain = 0
KKN1 171700Z 19011G17KT 34/20 A2999 RMK A01 T03430199  RH  046%=      5-min Rain = 0
KKN1 171705Z 19014KT 35/20 A2999 RMK A01 T03500199  RH  044%=      5-min Rain = 0
KKN1 171710Z 19012G17KT 35/20 A2999 RMK A01 T03490200  RH  044%=      5-min Rain = 0
KKN1 171715Z 18013KT 35/20 A2999 RMK A01 T03530199  RH  043%=      5-min Rain = 0
KKN1 171720Z 18013G18KT 35/20 A2999 RMK A01 T03520198  RH  043%=      5-min Rain = 0
KKN1 171725Z 20012G18KT 35/20 A2998 RMK A01 T03520196  RH  042%=      5-min Rain = 0
KKN1 171730Z 18013G20KT 35/20 A2998 RMK A01 T03540196  RH  042%=      5-min Rain = 0
KKN1 171735Z 18012G19KT 35/20 A2998 RMK A01 T03540197  RH  042%=      5-min Rain = 0
KKN1 171740Z 19012G18KT 36/20 A2998 RMK A01 T03570196  RH  041%=      5-min Rain = 0
KKN1 171745Z 18014G20KT 36/19 A2998 RMK A01 T03570192  RH  040%=      5-min Rain = 0
KKN1 171750Z 18016G21KT 36/19 A2998 RMK A01 T03560189  RH  039%=      5-min Rain = 0
KKN1 171755Z 18014G19KT 36/19 A2998 RMK A01 T03600188  RH  039%=      5-min Rain = 0
KKN1 171800Z 19015G20KT 36/19 A2998 RMK A01 T03600188  RH  039%=      5-min Rain = 0
KKN1 171805Z 18014KT 36/19 A2998 RMK A01 T03630187  RH  038%=      5-min Rain = 0
KKN1 171810Z 18014KT 37/18 A2998 RMK A01 T03650183  RH  036%=      5-min Rain = 0
KKN1 171815Z 19015G21KT 36/18 A2998 RMK A01 T03640181  RH  036%=      5-min Rain = 0
KKN1 171820Z 18014G19KT 36/18 A2998 RMK A01 T03630178  RH  036%=      5-min Rain = 0
KKN1 171825Z 17015G20KT 37/18 A2998 RMK A01 T03680178  RH  035%=      5-min Rain = 0
KKN1 171830Z 18015G21KT 37/18 A2998 RMK A01 T03670180  RH  035%=      5-min Rain = 0
KKN1 171835Z 17015G20KT 37/18 A2997 RMK A01 T03700176  RH  034%=      5-min Rain = 0
KKN1 171840Z 20014G19KT 37/18 A2997 RMK A01 T03700177  RH  034%=      5-min Rain = 0
KKN1 171845Z 18015G20KT 37/17 A2997 RMK A01 T03710174  RH  033%=      5-min Rain = 0
KKN1 171850Z 18015G20KT 38/17 A2996 RMK A01 T03750173  RH  032%=      5-min Rain = 0
KKN1 171855Z 18016G22KT 37/17 A2996 RMK A01 T03740174  RH  032%=      5-min Rain = 0
KKN1 171900Z 19014G24KT 37/17 A2996 RMK A01 T03710173  RH  033%=      5-min Rain = 0
KKN1 171905Z 18014G21KT 37/18 A2995 RMK A01 T03730176  RH  033%=      5-min Rain = 0
KKN1 171910Z 17017KT 38/17 A2995 RMK A01 T03790172  RH  031%=      5-min Rain = 0
KKN1 171915Z 18017G23KT 38/17 A2995 RMK A01 T03790171  RH  031%=      5-min Rain = 0
KKN1 171920Z 17018G23KT 38/17 A2995 RMK A01 T03770174  RH  032%=      5-min Rain = 0
KKN1 171925Z 17016G22KT 37/18 A2995 RMK A01 T03740175  RH  033%=      5-min Rain = 0
KKN1 171930Z 17014G20KT 38/18 A2995 RMK A01 T03750177  RH  033%=      5-min Rain = 0
KKN1 171935Z 18013G19KT 38/18 A2995 RMK A01 T03820178  RH  032%=      5-min Rain = 0
KKN1 171940Z 17016G22KT 38/18 A2994 RMK A01 T03840175  RH  031%=      5-min Rain = 0
KKN1 171945Z 19012G19KT 38/17 A2994 RMK A01 T03780172  RH  031%=      5-min Rain = 0
KKN1 171950Z 18016G21KT 38/17 A2994 RMK A01 T03790174  RH  032%=      5-min Rain = 0
KKN1 171955Z 18017G22KT 38/17 A2994 RMK A01 T03760173  RH  032%=      5-min Rain = 0
KKN1 172000Z 19014G19KT 37/18 A2994 RMK A01 T03740175  RH  033%=      5-min Rain = 0
KKN1 172005Z 18017KT 38/17 A2994 RMK A01 T03820173  RH  031%=      5-min Rain = 0
KKN1 172010Z 18014G19KT 38/18 A2994 RMK A01 T03810175  RH  032%=      5-min Rain = 0
KKN1 172015Z 18016G22KT 38/18 A2994 RMK A01 T03790178  RH  033%=      5-min Rain = 0
KKN1 172020Z 17014G21KT 38/18 A2993 RMK A01 T03760179  RH  033%=      5-min Rain = 0
KKN1 172025Z 16016G21KT 38/18 A2993 RMK A01 T03820177  RH  032%=      5-min Rain = 0
KKN1 172030Z 17014G21KT 38/17 A2993 RMK A01 T03820174  RH  031%=      5-min Rain = 0
KKN1 172035Z 16016G23KT 38/17 A2993 RMK A01 T03840169  RH  030%=      5-min Rain = 0
KKN1 172040Z 16016G23KT 38/16 A2993 RMK A01 T03810163  RH  029%=      5-min Rain = 0
KKN1 172045Z 18015G20KT 38/17 A2993 RMK A01 T03810166  RH  030%=      5-min Rain = 0
KKN1 172050Z 18014G19KT 38/17 A2992 RMK A01 T03790165  RH  030%=      5-min Rain = 0
KKN1 172055Z 18016G23KT 38/17 A2992 RMK A01 T03790166  RH  030%=      5-min Rain = 0
KKN1 172100Z 18015G22KT 38/17 A2992 RMK A01 T03770166  RH  030%=      5-min Rain = 0
KKN1 172105Z 17015G22KT 38/17 A2992 RMK A01 T03790166  RH  030%=      5-min Rain = 0
KKN1 172110Z 18015G20KT 38/17 A2991 RMK A01 T03770170  RH  031%=      5-min Rain = 0
KKN1 172115Z 18017G22KT 38/17 A2991 RMK A01 T03790170  RH  031%=      5-min Rain = 0
KKN1 172120Z 19015G20KT 38/17 A2991 RMK A01 T03780169  RH  031%=      5-min Rain = 0
KKN1 172125Z 17014G19KT 38/17 A2991 RMK A01 T03830168  RH  030%=      5-min Rain = 0
KKN1 172130Z 17016G25KT 38/17 A2991 RMK A01 T03810172  RH  031%=      5-min Rain = 0
KKN1 172135Z 18018G24KT 38/17 A2991 RMK A01 T03810169  RH  030%=      5-min Rain = 0
KKN1 172140Z 18016G21KT 38/17 A299 RMK A01 T03780171  RH  031%=      5-min Rain = 0
KKN1 172145Z 17018KT 38/17 A299 RMK A01 T03820171  RH  031%=      5-min Rain = 0
KKN1 172150Z 18016G24KT 38/17 A299 RMK A01 T03790171  RH  031%=      5-min Rain = 0
KKN1 172155Z 18017G23KT 38/17 A299 RMK A01 T03780172  RH  031%=      5-min Rain = 0
KKN1 172200Z 17013G18KT 38/17 A299 RMK A01 T03790174  RH  032%=      5-min Rain = 0
KKN1 172205Z 17017KT 38/17 A299 RMK A01 T03830173  RH  031%=      5-min Rain = 0
KKN1 172210Z 16019G25KT 38/17 A299 RMK A01 T03820173  RH  031%=      5-min Rain = 0
KKN1 172215Z 16017KT 38/17 A299 RMK A01 T03790171  RH  031%=      5-min Rain = 0
KKN1 172220Z 16016G23KT 38/17 A299 RMK A01 T03820172  RH  031%=      5-min Rain = 0
KKN1 172225Z 18014KT 38/17 A299 RMK A01 T03810172  RH  031%=      5-min Rain = 0
KKN1 172230Z 17015G20KT 38/17 A2989 RMK A01 T03810170  RH  031%=      5-min Rain = 0
KKN1 172235Z 17017G22KT 38/17 A2989 RMK A01 T03820171  RH  030%=      5-min Rain = 0
KKN1 172240Z 18017G23KT 38/17 A2989 RMK A01 T03790169  RH  031%=      5-min Rain = 0
KKN1 172245Z 17015G21KT 38/17 A2989 RMK A01 T03790168  RH  031%=      5-min Rain = 0
KKN1 172250Z 16017G22KT 38/17 A2989 RMK A01 T03790165  RH  030%=      5-min Rain = 0
KKN1 172255Z 18016KT 38/17 A2989 RMK A01 T03800166  RH  030%=      5-min Rain = 0
KKN1 172300Z 17015KT 38/17 A2989 RMK A01 T03790169  RH  031%=      5-min Rain = 0
KKN1 172305Z 17016G21KT 38/17 A2989 RMK A01 T03810167  RH  030%=      5-min Rain = 0
KKN1 172310Z 18015KT 38/17 A2989 RMK A01 T03790165  RH  030%=      5-min Rain = 0
KKN1 172315Z 17014G20KT 38/17 A2989 RMK A01 T03760167  RH  031%=      5-min Rain = 0
KKN1 172320Z 16017G22KT 38/17 A2988 RMK A01 T03760169  RH  031%=      5-min Rain = 0
KKN1 172325Z 16016G21KT 38/17 A2988 RMK A01 T03780166  RH  030%=      5-min Rain = 0
KKN1 172330Z 16015KT 38/17 A2988 RMK A01 T03770167  RH  030%=      5-min Rain = 0
KKN1 172335Z 16014G20KT 38/17 A2988 RMK A01 T03770167  RH  031%=      5-min Rain = 0
KKN1 172340Z 17017KT 38/17 A2988 RMK A01 T03750167  RH  031%=      5-min Rain = 0
KKN1 172345Z 17016G21KT 37/17 A2988 RMK A01 T03730165  RH  031%=      5-min Rain = 0
KKN1 172350Z 15014KT 38/17 A2988 RMK A01 T03750169  RH  031%=      5-min Rain = 0
KKN1 172355Z 16017G23KT 37/17 A2987 RMK A01 T03730169  RH  032%=      5-min Rain = 0
KKN1 180000Z 17015G20KT 37/17 A2987 RMK A01 T03710166  RH  031%=      5-min Rain = 0
KKN1 180005Z 17014G19KT 37/17 A2987 RMK A01 T03720170  RH  032%=      5-min Rain = 0
KKN1 180010Z 17014G19KT 37/17 A2987 RMK A01 T03710165  RH  031%=      5-min Rain = 0
KKN1 180015Z 16013KT 37/17 A2987 RMK A01 T03700170  RH  032%=      5-min Rain = 0
KKN1 180020Z 16016KT 37/17 A2987 RMK A01 T03680172  RH  033%=      5-min Rain = 0
KKN1 180025Z 16015KT 37/17 A2987 RMK A01 T03670173  RH  034%=      5-min Rain = 0
KKN1 180030Z 16017KT 37/17 A2987 RMK A01 T03650173  RH  034%=      5-min Rain = 0
KKN1 180035Z 16015G20KT 36/17 A2987 RMK A01 T03640173  RH  034%=      5-min Rain = 0
KKN1 180040Z 15016KT 36/17 A2987 RMK A01 T03620173  RH  034%=      5-min Rain = 0
KKN1 180045Z 16016G22KT 36/17 A2987 RMK A01 T03610173  RH  035%=      5-min Rain = 0
KKN1 180050Z 16015G20KT 36/17 A2987 RMK A01 T03600173  RH  035%=      5-min Rain = 0
KKN1 180055Z 16016KT 36/17 A2987 RMK A01 T03580172  RH  035%=      5-min Rain = 0
KKN1 180100Z 16015G21KT 36/17 A2987 RMK A01 T03570171  RH  035%=      5-min Rain = 0
KKN1 180105Z 16015G20KT 36/17 A2987 RMK A01 T03560170  RH  035%=      5-min Rain = 0
KKN1 180110Z 16015G20KT 36/17 A2988 RMK A01 T03550168  RH  035%=      5-min Rain = 0
KKN1 180115Z 17014G19KT 35/17 A2988 RMK A01 T03530169  RH  036%=      5-min Rain = 0
KKN1 180120Z 17012KT 35/17 A2988 RMK A01 T03510171  RH  036%=      5-min Rain = 0
KKN1 180125Z 17013KT 35/17 A2988 RMK A01 T03480172  RH  037%=      5-min Rain = 0
KKN1 180130Z 17014KT 35/17 A2988 RMK A01 T03470168  RH  036%=      5-min Rain = 0
KKN1 180135Z 17012KT 34/16 A2988 RMK A01 T03440164  RH  036%=      5-min Rain = 0
KKN1 180140Z 17011KT 34/16 A2988 RMK A01 T03420163  RH  036%=      5-min Rain = 0
KKN1 180145Z 17010KT 34/16 A2989 RMK A01 T03390163  RH  037%=      5-min Rain = 0
KKN1 180150Z 17010KT 34/16 A2989 RMK A01 T03360164  RH  038%=      5-min Rain = 0
KKN1 180155Z 17010KT 33/17 A2989 RMK A01 T03340167  RH  039%=      5-min Rain = 0
KKN1 180200Z 16010KT 33/17 A2989 RMK A01 T03330169  RH  039%=      5-min Rain = 0
KKN1 180205Z 16010KT 33/17 A2989 RMK A01 T03300172  RH  041%=      5-min Rain = 0
KKN1 180210Z 16009KT 33/17 A299 RMK A01 T03280174  RH  042%=      5-min Rain = 0
KKN1 180215Z 16008KT 32/18 A299 RMK A01 T03240175  RH  043%=      5-min Rain = 0
KKN1 180220Z 16009KT 32/18 A299 RMK A01 T03220175  RH  044%=      5-min Rain = 0
KKN1 180225Z 16009KT 32/18 A299 RMK A01 T03210176  RH  044%=      5-min Rain = 0
KKN1 180230Z 16009KT 32/18 A299 RMK A01 T03190177  RH  045%=      5-min Rain = 0
KKN1 180235Z 16009KT 32/18 A299 RMK A01 T03180178  RH  045%=      5-min Rain = 0
KKN1 180240Z 16008KT 32/18 A299 RMK A01 T03170178  RH  046%=      5-min Rain = 0
KKN1 180245Z 15008KT 32/18 A299 RMK A01 T03160177  RH  046%=      5-min Rain = 0
KKN1 180250Z 15008KT 32/18 A299 RMK A01 T03150177  RH  046%=      5-min Rain = 0
KKN1 180255Z 15008KT 31/18 A299 RMK A01 T03140176  RH  046%=      5-min Rain = 0
KKN1 180300Z 16008KT 31/18 A299 RMK A01 T03130176  RH  046%=      5-min Rain = 0
KKN1 180305Z 16008KT 31/18 A2991 RMK A01 T03100176  RH  047%=      5-min Rain = 0
KKN1 180310Z 16007KT 31/18 A2991 RMK A01 T03070176  RH  048%=      5-min Rain = 0
KKN1 180315Z 16007KT 31/18 A2991 RMK A01 T03050177  RH  049%=      5-min Rain = 0
KKN1 180320Z 16007KT 30/18 A2991 RMK A01 T03030178  RH  050%=      5-min Rain = 0
KKN1 180325Z 16007KT 30/18 A2991 RMK A01 T03010178  RH  050%=      5-min Rain = 0
KKN1 180330Z 15007KT 30/18 A2991 RMK A01 T02990179  RH  051%=      5-min Rain = 0
KKN1 180335Z 15007KT 30/18 A2991 RMK A01 T02970179  RH  052%=      5-min Rain = 0
KKN1 180340Z 15007KT 30/18 A2992 RMK A01 T02950180  RH  053%=      5-min Rain = 0
KKN1 180345Z 15007KT 29/18 A2992 RMK A01 T02940180  RH  053%=      5-min Rain = 0
KKN1 180350Z 14008KT 29/18 A2992 RMK A01 T02930181  RH  054%=      5-min Rain = 0
KKN1 180355Z 15008KT 29/18 A2992 RMK A01 T02920182  RH  054%=      5-min Rain = 0
KKN1 180400Z 15008KT 29/18 A2992 RMK A01 T02920182  RH  054%=      5-min Rain = 0
KKN1 180405Z 15008KT 29/18 A2992 RMK A01 T02930182  RH  054%=      5-min Rain = 0
KKN1 180410Z 15008KT 29/18 A2992 RMK A01 T02930182  RH  054%=      5-min Rain = 0
KKN1 180415Z 15008KT 29/18 A2993 RMK A01 T02920182  RH  054%=      5-min Rain = 0
KKN1 180420Z 15008KT 29/18 A2993 RMK A01 T02920182  RH  054%=      5-min Rain = 0
KKN1 180425Z 15009KT 29/18 A2993 RMK A01 T02910183  RH  055%=      5-min Rain = 0
KKN1 180430Z 15009KT 29/18 A2993 RMK A01 T02910183  RH  055%=      5-min Rain = 0
KKN1 180435Z 15010KT 29/18 A2993 RMK A01 T02920183  RH  055%=      5-min Rain = 0
KKN1 180440Z 15012KT 29/18 A2993 RMK A01 T02940183  RH  054%=      5-min Rain = 0
KKN1 180445Z 16012KT 30/18 A2993 RMK A01 T02960183  RH  053%=      5-min Rain = 0
KKN1 180450Z 16013KT 30/18 A2993 RMK A01 T02970183  RH  053%=      5-min Rain = 0
KKN1 180455Z 16013KT 30/18 A2992 RMK A01 T02980183  RH  053%=      5-min Rain = 0

Page generated in 0.0186 seconds.